RYR4696 GCRR-LEAL
Flight info
| Callsign | RYR4696 |
|---|---|
| Flight time | 2h 34m |
| Altitude | 36000 |
| Route | KORAL UG5 SONSO DCT NIRAL UN871 OSDAM UM985 BARPA DCT XAVIR DCT PIMOS M445 ETURA T252 XEBAR M985 ASTRO |
| Aircraft | B738/M-SDE3FGILRWY/SB1 |
Departure
| Time | 2026-05-07 09:45 |
|---|---|
| Airport | César Manrique-Lanzarote Airport (GCRR) |
Arrival
| Time | 2026-05-07 12:19 |
|---|---|
| Airport | Alicante-Elche Miguel Hernández Airport (LEAL) |
| Time | Latitude | Longitude | Altitude | Speed | Heading |
|---|---|---|---|---|---|
| 2026-05-07 09:14 | 28.95251 | -13.60558 | 39 ft | 0 kts | 296° |
| 2026-05-07 09:40 | 28.95251 | -13.60561 | 40 ft | 1 kts | 287° |
| 2026-05-07 09:40 | 28.95235 | -13.60574 | 40 ft | 6 kts | 191° |
| 2026-05-07 09:40 | 28.95166 | -13.60568 | 39 ft | 12 kts | 173° |
| 2026-05-07 09:41 | 28.95081 | -13.60554 | 38 ft | 12 kts | 173° |
| 2026-05-07 09:41 | 28.94997 | -13.60542 | 37 ft | 12 kts | 173° |
| 2026-05-07 09:41 | 28.94911 | -13.60543 | 36 ft | 13 kts | 182° |
| 2026-05-07 09:41 | 28.94808 | -13.60578 | 35 ft | 19 kts | 208° |
| 2026-05-07 09:42 | 28.94681 | -13.60652 | 33 ft | 20 kts | 205° |
| 2026-05-07 09:42 | 28.94557 | -13.60719 | 31 ft | 20 kts | 208° |
| 2026-05-07 09:42 | 28.94438 | -13.60793 | 30 ft | 19 kts | 208° |
| 2026-05-07 09:42 | 28.94321 | -13.60858 | 28 ft | 18 kts | 206° |
| 2026-05-07 09:43 | 28.94209 | -13.60924 | 26 ft | 18 kts | 209° |
| 2026-05-07 09:43 | 28.94103 | -13.60992 | 27 ft | 17 kts | 207° |
| 2026-05-07 09:43 | 28.93998 | -13.61050 | 25 ft | 17 kts | 206° |
| 2026-05-07 09:43 | 28.93896 | -13.61107 | 24 ft | 16 kts | 206° |
| 2026-05-07 09:44 | 28.93790 | -13.61166 | 21 ft | 21 kts | 206° |
| 2026-05-07 09:44 | 28.93663 | -13.61213 | 19 ft | 18 kts | 155° |
| 2026-05-07 09:44 | 28.93616 | -13.61090 | 19 ft | 17 kts | 77° |
| 2026-05-07 09:44 | 28.93708 | -13.61004 | 21 ft | 22 kts | 27° |
| 2026-05-07 09:45 | 28.93901 | -13.60892 | 29 ft | 70 kts | 26° |
| 2026-05-07 09:45 | 28.94548 | -13.60522 | 33 ft | 135 kts | 27° |
| 2026-05-07 09:45 | 28.95518 | -13.59984 | 314 ft | 164 kts | 31° |
| 2026-05-07 09:45 | 28.96506 | -13.59327 | 1089 ft | 167 kts | 37° |
| 2026-05-07 09:46 | 28.97416 | -13.58447 | 1777 ft | 178 kts | 36° |
| 2026-05-07 09:46 | 28.98483 | -13.57516 | 2101 ft | 208 kts | 35° |
| 2026-05-07 09:46 | 28.99719 | -13.56474 | 2357 ft | 233 kts | 35° |
| 2026-05-07 09:46 | 29.01036 | -13.55256 | 2839 ft | 251 kts | 45° |
| 2026-05-07 09:47 | 29.02141 | -13.53697 | 3717 ft | 257 kts | 49° |
| 2026-05-07 09:47 | 29.03266 | -13.52062 | 4501 ft | 266 kts | 49° |
| 2026-05-07 09:47 | 29.04425 | -13.50397 | 5396 ft | 268 kts | 48° |
| 2026-05-07 09:47 | 29.05613 | -13.48709 | 6161 ft | 278 kts | 48° |
| 2026-05-07 09:48 | 29.06839 | -13.46978 | 6953 ft | 281 kts | 49° |
| 2026-05-07 09:48 | 29.08085 | -13.45222 | 7716 ft | 287 kts | 49° |
| 2026-05-07 09:48 | 29.09364 | -13.43462 | 8545 ft | 289 kts | 43° |
| 2026-05-07 09:48 | 29.11035 | -13.42210 | 9310 ft | 289 kts | 21° |
| 2026-05-07 09:49 | 29.12871 | -13.41258 | 10125 ft | 292 kts | 21° |
| 2026-05-07 09:49 | 29.14767 | -13.40272 | 10533 ft | 311 kts | 21° |
| 2026-05-07 09:49 | 29.16813 | -13.39200 | 10759 ft | 334 kts | 21° |
| 2026-05-07 09:49 | 29.18958 | -13.38059 | 11287 ft | 345 kts | 22° |
| 2026-05-07 09:50 | 29.21144 | -13.36887 | 11881 ft | 349 kts | 22° |
| 2026-05-07 09:50 | 29.23314 | -13.35720 | 12024 ft | 351 kts | 21° |
| 2026-05-07 09:50 | 29.25525 | -13.34529 | 12043 ft | 351 kts | 22° |
| 2026-05-07 09:50 | 29.27577 | -13.32990 | 12036 ft | 358 kts | 43° |
| 2026-05-07 09:51 | 29.29117 | -13.30731 | 12060 ft | 361 kts | 52° |
| 2026-05-07 09:51 | 29.30535 | -13.28349 | 12051 ft | 362 kts | 53° |
| 2026-05-07 09:51 | 29.31945 | -13.25961 | 12049 ft | 362 kts | 53° |
| 2026-05-07 09:51 | 29.33373 | -13.23578 | 12050 ft | 363 kts | 52° |
| 2026-05-07 09:52 | 29.34811 | -13.21208 | 12052 ft | 363 kts | 52° |
| 2026-05-07 09:52 | 29.36257 | -13.18836 | 12050 ft | 363 kts | 52° |
| 2026-05-07 09:52 | 29.37700 | -13.16469 | 12048 ft | 362 kts | 52° |
| 2026-05-07 09:52 | 29.39144 | -13.14099 | 12048 ft | 362 kts | 52° |
| 2026-05-07 09:53 | 29.40584 | -13.11731 | 12045 ft | 362 kts | 52° |
| 2026-05-07 09:53 | 29.42031 | -13.09354 | 12166 ft | 366 kts | 52° |
| 2026-05-07 09:53 | 29.43439 | -13.07037 | 12843 ft | 368 kts | 52° |
| 2026-05-07 09:53 | 29.44905 | -13.04623 | 13644 ft | 370 kts | 52° |
| 2026-05-07 09:54 | 29.46386 | -13.02184 | 14252 ft | 375 kts | 52° |
| 2026-05-07 09:54 | 29.47888 | -12.99708 | 14826 ft | 381 kts | 53° |
| 2026-05-07 09:54 | 29.49413 | -12.97189 | 15386 ft | 387 kts | 53° |
| 2026-05-07 09:54 | 29.50960 | -12.94630 | 15961 ft | 392 kts | 53° |
| 2026-05-07 09:55 | 29.52525 | -12.92037 | 16531 ft | 398 kts | 53° |
| 2026-05-07 09:55 | 29.54109 | -12.89411 | 17096 ft | 403 kts | 54° |
| 2026-05-07 09:55 | 29.55716 | -12.86746 | 17656 ft | 408 kts | 54° |
| 2026-05-07 09:55 | 29.57341 | -12.84049 | 18214 ft | 413 kts | 54° |
| 2026-05-07 09:56 | 29.58988 | -12.81314 | 18713 ft | 418 kts | 54° |
| 2026-05-07 09:56 | 29.60647 | -12.78557 | 19248 ft | 421 kts | 54° |
| 2026-05-07 09:56 | 29.62318 | -12.75778 | 19807 ft | 423 kts | 54° |
| 2026-05-07 09:56 | 29.63992 | -12.72992 | 20399 ft | 425 kts | 54° |
| 2026-05-07 09:57 | 29.65679 | -12.70183 | 20944 ft | 428 kts | 53° |
| 2026-05-07 09:57 | 29.67378 | -12.67352 | 21464 ft | 432 kts | 53° |
| 2026-05-07 09:57 | 29.69089 | -12.64499 | 21982 ft | 435 kts | 53° |
| 2026-05-07 09:57 | 29.70811 | -12.61626 | 22493 ft | 438 kts | 53° |
| 2026-05-07 09:58 | 29.72547 | -12.58730 | 23006 ft | 441 kts | 53° |
| 2026-05-07 09:58 | 29.74290 | -12.55812 | 23507 ft | 444 kts | 53° |
| 2026-05-07 09:58 | 29.76040 | -12.52867 | 23934 ft | 447 kts | 53° |
| 2026-05-07 09:58 | 29.77774 | -12.49940 | 24364 ft | 450 kts | 53° |
| 2026-05-07 09:59 | 29.79538 | -12.46960 | 24806 ft | 451 kts | 53° |
| 2026-05-07 09:59 | 29.81309 | -12.43964 | 25257 ft | 454 kts | 53° |
| 2026-05-07 09:59 | 29.83115 | -12.40909 | 25636 ft | 457 kts | 53° |
| 2026-05-07 09:59 | 29.84883 | -12.37917 | 26059 ft | 459 kts | 52° |
| 2026-05-07 10:00 | 29.86680 | -12.34874 | 26534 ft | 459 kts | 52° |
| 2026-05-07 10:00 | 29.88480 | -12.31823 | 26924 ft | 462 kts | 52° |
| 2026-05-07 10:00 | 29.90291 | -12.28753 | 27292 ft | 464 kts | 52° |
| 2026-05-07 10:00 | 29.92111 | -12.25666 | 27667 ft | 467 kts | 52° |
| 2026-05-07 10:01 | 29.93937 | -12.22563 | 28050 ft | 469 kts | 52° |
| 2026-05-07 10:01 | 29.95774 | -12.19441 | 28426 ft | 471 kts | 52° |
| 2026-05-07 10:01 | 29.97616 | -12.16307 | 28799 ft | 473 kts | 52° |
| 2026-05-07 10:01 | 29.99464 | -12.13163 | 29155 ft | 475 kts | 52° |
| 2026-05-07 10:02 | 30.01380 | -12.10052 | 29487 ft | 475 kts | 47° |
| 2026-05-07 10:02 | 30.03624 | -12.07264 | 29831 ft | 473 kts | 40° |
| 2026-05-07 10:02 | 30.05994 | -12.04625 | 30163 ft | 475 kts | 39° |
| 2026-05-07 10:02 | 30.08396 | -12.02001 | 30476 ft | 475 kts | 39° |
| 2026-05-07 10:03 | 30.10799 | -11.99379 | 30812 ft | 475 kts | 39° |
| 2026-05-07 10:03 | 30.13194 | -11.96750 | 31177 ft | 475 kts | 39° |
| 2026-05-07 10:03 | 30.15576 | -11.94115 | 31584 ft | 473 kts | 39° |
| 2026-05-07 10:03 | 30.17941 | -11.91479 | 32000 ft | 471 kts | 39° |
| 2026-05-07 10:04 | 30.20288 | -11.88852 | 32374 ft | 470 kts | 39° |
| 2026-05-07 10:04 | 30.22632 | -11.86220 | 32728 ft | 469 kts | 39° |
| 2026-05-07 10:04 | 30.24971 | -11.83592 | 33091 ft | 468 kts | 39° |
| 2026-05-07 10:04 | 30.27304 | -11.80967 | 33467 ft | 467 kts | 39° |
| 2026-05-07 10:05 | 30.29626 | -11.78352 | 33833 ft | 465 kts | 39° |
| 2026-05-07 10:05 | 30.31941 | -11.75745 | 34155 ft | 465 kts | 39° |
| 2026-05-07 10:05 | 30.34256 | -11.73136 | 34443 ft | 464 kts | 39° |
| 2026-05-07 10:05 | 30.36564 | -11.70534 | 34752 ft | 462 kts | 39° |
| 2026-05-07 10:06 | 30.38865 | -11.67938 | 35043 ft | 461 kts | 39° |
| 2026-05-07 10:06 | 30.41158 | -11.65349 | 35330 ft | 460 kts | 39° |
| 2026-05-07 10:06 | 30.43445 | -11.62766 | 35616 ft | 459 kts | 39° |
| 2026-05-07 10:06 | 30.45730 | -11.60183 | 35873 ft | 459 kts | 39° |
| 2026-05-07 10:07 | 30.48019 | -11.57594 | 36032 ft | 461 kts | 39° |
| 2026-05-07 10:07 | 30.52633 | -11.52374 | 36033 ft | 464 kts | 39° |
| 2026-05-07 10:08 | 30.57222 | -11.47166 | 36015 ft | 458 kts | 39° |
| 2026-05-07 10:08 | 30.61763 | -11.42006 | 36034 ft | 456 kts | 39° |
| 2026-05-07 10:09 | 30.66293 | -11.36857 | 36033 ft | 456 kts | 39° |
| 2026-05-07 10:09 | 30.70822 | -11.31701 | 36038 ft | 456 kts | 39° |
| 2026-05-07 10:10 | 30.75349 | -11.26540 | 36065 ft | 456 kts | 39° |
| 2026-05-07 10:10 | 30.79881 | -11.21365 | 36040 ft | 457 kts | 39° |
| 2026-05-07 10:11 | 30.84418 | -11.16177 | 36031 ft | 458 kts | 39° |
| 2026-05-07 10:11 | 30.88959 | -11.10977 | 36028 ft | 458 kts | 39° |
| 2026-05-07 10:12 | 30.93501 | -11.05769 | 36030 ft | 459 kts | 39° |
| 2026-05-07 10:12 | 30.98020 | -11.00579 | 36022 ft | 459 kts | 39° |
| 2026-05-07 10:13 | 31.02568 | -10.95349 | 36022 ft | 460 kts | 39° |
| 2026-05-07 10:13 | 31.07119 | -10.90107 | 36046 ft | 460 kts | 39° |
| 2026-05-07 10:14 | 31.11675 | -10.84854 | 36030 ft | 461 kts | 39° |
| 2026-05-07 10:14 | 31.16230 | -10.79593 | 36020 ft | 461 kts | 39° |
| 2026-05-07 10:15 | 31.20782 | -10.74328 | 36022 ft | 460 kts | 39° |
| 2026-05-07 10:15 | 31.25329 | -10.69061 | 36018 ft | 460 kts | 39° |
| 2026-05-07 10:16 | 31.29873 | -10.63791 | 36019 ft | 460 kts | 39° |
| 2026-05-07 10:16 | 31.34408 | -10.58523 | 36018 ft | 459 kts | 39° |
| 2026-05-07 10:17 | 31.38940 | -10.53251 | 36020 ft | 460 kts | 39° |
| 2026-05-07 10:17 | 31.43467 | -10.47978 | 36023 ft | 459 kts | 39° |
| 2026-05-07 10:18 | 31.47995 | -10.42696 | 36016 ft | 459 kts | 39° |
| 2026-05-07 10:18 | 31.52512 | -10.37418 | 36017 ft | 459 kts | 39° |
| 2026-05-07 10:19 | 31.57026 | -10.32137 | 36017 ft | 458 kts | 39° |
| 2026-05-07 10:19 | 31.61540 | -10.26848 | 36010 ft | 458 kts | 39° |
| 2026-05-07 10:20 | 31.66047 | -10.21560 | 36011 ft | 458 kts | 39° |
| 2026-05-07 10:20 | 31.70552 | -10.16267 | 36018 ft | 459 kts | 39° |
| 2026-05-07 10:21 | 31.75063 | -10.10958 | 36013 ft | 459 kts | 39° |
| 2026-05-07 10:21 | 31.79569 | -10.05649 | 36013 ft | 459 kts | 39° |
| 2026-05-07 10:22 | 31.84076 | -10.00329 | 36014 ft | 459 kts | 39° |
| 2026-05-07 10:22 | 31.88552 | -9.95039 | 36005 ft | 459 kts | 39° |
| 2026-05-07 10:23 | 31.93054 | -9.89709 | 36008 ft | 459 kts | 39° |
| 2026-05-07 10:23 | 31.97557 | -9.84371 | 36027 ft | 459 kts | 39° |
| 2026-05-07 10:24 | 32.02063 | -9.79022 | 36008 ft | 460 kts | 39° |
| 2026-05-07 10:24 | 32.06568 | -9.73665 | 36006 ft | 460 kts | 39° |
| 2026-05-07 10:25 | 32.11072 | -9.68302 | 35999 ft | 460 kts | 39° |
| 2026-05-07 10:25 | 32.15572 | -9.62936 | 36009 ft | 460 kts | 39° |
| 2026-05-07 10:26 | 32.20070 | -9.57564 | 36007 ft | 460 kts | 39° |
| 2026-05-07 10:26 | 32.24564 | -9.52189 | 35996 ft | 460 kts | 39° |
| 2026-05-07 10:27 | 32.29053 | -9.46812 | 36003 ft | 460 kts | 39° |
| 2026-05-07 10:27 | 32.33544 | -9.41424 | 36008 ft | 460 kts | 40° |
| 2026-05-07 10:28 | 32.38034 | -9.36030 | 35994 ft | 460 kts | 40° |
| 2026-05-07 10:28 | 32.42513 | -9.30639 | 36002 ft | 459 kts | 40° |
| 2026-05-07 10:29 | 32.46991 | -9.25244 | 35999 ft | 459 kts | 40° |
| 2026-05-07 10:29 | 32.51461 | -9.19849 | 36000 ft | 459 kts | 40° |
| 2026-05-07 10:30 | 32.57408 | -9.12658 | 36019 ft | 459 kts | 39° |
| 2026-05-07 10:30 | 32.61885 | -9.07238 | 36012 ft | 460 kts | 39° |
| 2026-05-07 10:31 | 32.66356 | -9.01814 | 35998 ft | 460 kts | 40° |
| 2026-05-07 10:31 | 32.70825 | -8.96383 | 35999 ft | 460 kts | 40° |
| 2026-05-07 10:32 | 32.75288 | -8.90953 | 36002 ft | 459 kts | 40° |
| 2026-05-07 10:32 | 32.79738 | -8.85529 | 36000 ft | 458 kts | 40° |
| 2026-05-07 10:33 | 32.84185 | -8.80103 | 36001 ft | 458 kts | 40° |
| 2026-05-07 10:33 | 32.88625 | -8.74675 | 36001 ft | 458 kts | 39° |
| 2026-05-07 10:34 | 32.93027 | -8.69287 | 36015 ft | 457 kts | 39° |
| 2026-05-07 10:34 | 32.97456 | -8.63857 | 35991 ft | 457 kts | 39° |
| 2026-05-07 10:35 | 33.01873 | -8.58432 | 35999 ft | 456 kts | 40° |
| 2026-05-07 10:35 | 33.06277 | -8.53015 | 35999 ft | 455 kts | 40° |
| 2026-05-07 10:36 | 33.10676 | -8.47597 | 35991 ft | 454 kts | 40° |
| 2026-05-07 10:36 | 33.15063 | -8.42185 | 36006 ft | 454 kts | 40° |
| 2026-05-07 10:37 | 33.19497 | -8.36841 | 35991 ft | 450 kts | 34° |
| 2026-05-07 10:37 | 33.24586 | -8.32698 | 35999 ft | 441 kts | 25° |
| 2026-05-07 10:38 | 33.29804 | -8.28867 | 36004 ft | 440 kts | 25° |
| 2026-05-07 10:38 | 33.35008 | -8.25010 | 35997 ft | 441 kts | 25° |
| 2026-05-07 10:39 | 33.40207 | -8.21106 | 35999 ft | 441 kts | 26° |
| 2026-05-07 10:39 | 33.45391 | -8.17189 | 35984 ft | 441 kts | 26° |
| 2026-05-07 10:40 | 33.50585 | -8.13255 | 35997 ft | 442 kts | 26° |
| 2026-05-07 10:40 | 33.55799 | -8.09301 | 36002 ft | 444 kts | 26° |
| 2026-05-07 10:41 | 33.61033 | -8.05327 | 36000 ft | 446 kts | 26° |
| 2026-05-07 10:41 | 33.66290 | -8.01329 | 36000 ft | 448 kts | 26° |
| 2026-05-07 10:42 | 33.71569 | -7.97308 | 36008 ft | 450 kts | 26° |
| 2026-05-07 10:42 | 33.76863 | -7.93270 | 36003 ft | 451 kts | 26° |
| 2026-05-07 10:43 | 33.82159 | -7.89224 | 36000 ft | 451 kts | 26° |
| 2026-05-07 10:43 | 33.87453 | -7.85173 | 36001 ft | 451 kts | 26° |
| 2026-05-07 10:44 | 33.92738 | -7.81124 | 35999 ft | 450 kts | 26° |
| 2026-05-07 10:44 | 33.98010 | -7.77078 | 36039 ft | 449 kts | 26° |
| 2026-05-07 10:45 | 34.03273 | -7.73034 | 36013 ft | 448 kts | 26° |
| 2026-05-07 10:45 | 34.08487 | -7.69021 | 36008 ft | 447 kts | 26° |
| 2026-05-07 10:46 | 34.13722 | -7.64987 | 36002 ft | 446 kts | 26° |
| 2026-05-07 10:46 | 34.18939 | -7.60960 | 36002 ft | 445 kts | 26° |
| 2026-05-07 10:47 | 34.24150 | -7.56932 | 36010 ft | 444 kts | 26° |
| 2026-05-07 10:47 | 34.29361 | -7.52899 | 36012 ft | 444 kts | 26° |
| 2026-05-07 10:48 | 34.34563 | -7.48865 | 36003 ft | 444 kts | 26° |
| 2026-05-07 10:48 | 34.39765 | -7.44827 | 36006 ft | 444 kts | 26° |
| 2026-05-07 10:49 | 34.44958 | -7.40789 | 36002 ft | 443 kts | 26° |
| 2026-05-07 10:49 | 34.50145 | -7.36749 | 36004 ft | 443 kts | 26° |
| 2026-05-07 10:50 | 34.55338 | -7.32699 | 36007 ft | 444 kts | 25° |
| 2026-05-07 10:50 | 34.60534 | -7.28640 | 36004 ft | 444 kts | 25° |
| 2026-05-07 10:51 | 34.65733 | -7.24574 | 35999 ft | 445 kts | 26° |
| 2026-05-07 10:51 | 34.70939 | -7.20494 | 36011 ft | 445 kts | 26° |
| 2026-05-07 10:52 | 34.76143 | -7.16410 | 35996 ft | 446 kts | 26° |
| 2026-05-07 10:52 | 34.81353 | -7.12316 | 36001 ft | 446 kts | 25° |
| 2026-05-07 10:53 | 34.86565 | -7.08214 | 35995 ft | 446 kts | 25° |
| 2026-05-07 10:53 | 34.91776 | -7.04105 | 35994 ft | 446 kts | 26° |
| 2026-05-07 10:54 | 34.96976 | -6.99999 | 35994 ft | 446 kts | 26° |
| 2026-05-07 10:54 | 35.02178 | -6.95885 | 35991 ft | 445 kts | 26° |
| 2026-05-07 10:55 | 35.07373 | -6.91771 | 36000 ft | 445 kts | 25° |
| 2026-05-07 10:55 | 35.12566 | -6.87652 | 35987 ft | 445 kts | 25° |
| 2026-05-07 10:56 | 35.17758 | -6.83527 | 36002 ft | 445 kts | 25° |
| 2026-05-07 10:56 | 35.22944 | -6.79400 | 35980 ft | 445 kts | 25° |
| 2026-05-07 10:57 | 35.28124 | -6.75271 | 35983 ft | 444 kts | 25° |
| 2026-05-07 10:57 | 35.33213 | -6.70943 | 35988 ft | 453 kts | 34° |
| 2026-05-07 10:58 | 35.37243 | -6.64933 | 35981 ft | 469 kts | 53° |
| 2026-05-07 10:58 | 35.40449 | -6.57942 | 35978 ft | 471 kts | 54° |
| 2026-05-07 10:59 | 35.43689 | -6.50981 | 35976 ft | 469 kts | 53° |
| 2026-05-07 10:59 | 35.47049 | -6.44136 | 35989 ft | 468 kts | 51° |
| 2026-05-07 11:00 | 35.50512 | -6.37376 | 35978 ft | 468 kts | 51° |
| 2026-05-07 11:00 | 35.53967 | -6.30601 | 35979 ft | 468 kts | 51° |
| 2026-05-07 11:01 | 35.57407 | -6.23795 | 35970 ft | 469 kts | 52° |
| 2026-05-07 11:01 | 35.60838 | -6.16976 | 35989 ft | 470 kts | 52° |
| 2026-05-07 11:02 | 35.64274 | -6.10135 | 35978 ft | 470 kts | 52° |
| 2026-05-07 11:02 | 35.67710 | -6.03281 | 35972 ft | 471 kts | 52° |
| 2026-05-07 11:03 | 35.71150 | -5.96408 | 35969 ft | 472 kts | 52° |
| 2026-05-07 11:03 | 35.74505 | -5.89441 | 35964 ft | 476 kts | 56° |
| 2026-05-07 11:04 | 35.77377 | -5.82056 | 35972 ft | 479 kts | 59° |
| 2026-05-07 11:04 | 35.80197 | -5.74620 | 35966 ft | 479 kts | 58° |
| 2026-05-07 11:05 | 35.83088 | -5.67233 | 35971 ft | 479 kts | 58° |
| 2026-05-07 11:05 | 35.86039 | -5.59879 | 35959 ft | 479 kts | 57° |
| 2026-05-07 11:06 | 35.89028 | -5.52540 | 35963 ft | 479 kts | 57° |
| 2026-05-07 11:06 | 35.92006 | -5.45190 | 35966 ft | 479 kts | 57° |
| 2026-05-07 11:07 | 35.94970 | -5.37831 | 35968 ft | 479 kts | 58° |
| 2026-05-07 11:07 | 35.97930 | -5.30463 | 35979 ft | 479 kts | 58° |
| 2026-05-07 11:08 | 36.00896 | -5.23078 | 35969 ft | 480 kts | 57° |
| 2026-05-07 11:08 | 36.03946 | -5.15761 | 35966 ft | 479 kts | 56° |
| 2026-05-07 11:09 | 36.07028 | -5.08450 | 35964 ft | 480 kts | 57° |
| 2026-05-07 11:09 | 36.10092 | -5.01115 | 35964 ft | 480 kts | 57° |
| 2026-05-07 11:10 | 36.13141 | -4.93781 | 35977 ft | 480 kts | 57° |
| 2026-05-07 11:10 | 36.16707 | -4.86891 | 35967 ft | 468 kts | 40° |
| 2026-05-07 11:11 | 36.21210 | -4.81123 | 35961 ft | 466 kts | 38° |
| 2026-05-07 11:11 | 36.25727 | -4.75434 | 35960 ft | 467 kts | 38° |
| 2026-05-07 11:12 | 36.30252 | -4.69651 | 35951 ft | 468 kts | 39° |
| 2026-05-07 11:12 | 36.34771 | -4.63813 | 35951 ft | 469 kts | 39° |
| 2026-05-07 11:13 | 36.39284 | -4.57959 | 35948 ft | 470 kts | 39° |
| 2026-05-07 11:13 | 36.43809 | -4.52083 | 35965 ft | 472 kts | 39° |
| 2026-05-07 11:14 | 36.48346 | -4.46181 | 35945 ft | 473 kts | 39° |
| 2026-05-07 11:14 | 36.52887 | -4.40263 | 35941 ft | 473 kts | 39° |
| 2026-05-07 11:15 | 36.57431 | -4.34331 | 35938 ft | 474 kts | 39° |
| 2026-05-07 11:15 | 36.61975 | -4.28388 | 35938 ft | 474 kts | 39° |
| 2026-05-07 11:16 | 36.65750 | -4.23442 | 35940 ft | 474 kts | 40° |
| 2026-05-07 11:16 | 36.71026 | -4.16518 | 35943 ft | 474 kts | 40° |
| 2026-05-07 11:17 | 36.75564 | -4.10550 | 35938 ft | 474 kts | 40° |
| 2026-05-07 11:17 | 36.79358 | -4.05552 | 35943 ft | 473 kts | 40° |
| 2026-05-07 11:18 | 36.83882 | -3.99582 | 35941 ft | 473 kts | 40° |
| 2026-05-07 11:18 | 36.88393 | -3.93620 | 35935 ft | 472 kts | 40° |
| 2026-05-07 11:19 | 36.92857 | -3.87707 | 35948 ft | 471 kts | 40° |
| 2026-05-07 11:19 | 36.97353 | -3.81744 | 35967 ft | 471 kts | 41° |
| 2026-05-07 11:20 | 37.01848 | -3.75769 | 35958 ft | 471 kts | 41° |
| 2026-05-07 11:20 | 37.06341 | -3.69785 | 35966 ft | 471 kts | 41° |
| 2026-05-07 11:21 | 37.10836 | -3.63789 | 35961 ft | 473 kts | 41° |
| 2026-05-07 11:21 | 37.15395 | -3.57861 | 35967 ft | 472 kts | 40° |
| 2026-05-07 11:22 | 37.19978 | -3.51965 | 35983 ft | 473 kts | 40° |
| 2026-05-07 11:22 | 37.24564 | -3.46032 | 35953 ft | 474 kts | 41° |
| 2026-05-07 11:23 | 37.29151 | -3.40081 | 35930 ft | 474 kts | 41° |
| 2026-05-07 11:23 | 37.33738 | -3.34119 | 35951 ft | 474 kts | 41° |
| 2026-05-07 11:24 | 37.38318 | -3.28155 | 35943 ft | 475 kts | 41° |
| 2026-05-07 11:24 | 37.42905 | -3.22171 | 35937 ft | 475 kts | 41° |
| 2026-05-07 11:25 | 37.47490 | -3.16180 | 35935 ft | 476 kts | 42° |
| 2026-05-07 11:25 | 37.52073 | -3.10179 | 35938 ft | 475 kts | 42° |
| 2026-05-07 11:26 | 37.56653 | -3.04172 | 35922 ft | 475 kts | 43° |
| 2026-05-07 11:26 | 37.61237 | -2.98157 | 35931 ft | 476 kts | 43° |
| 2026-05-07 11:27 | 37.65835 | -2.92126 | 35938 ft | 477 kts | 43° |
| 2026-05-07 11:27 | 37.70437 | -2.86075 | 35950 ft | 479 kts | 44° |
| 2026-05-07 11:28 | 37.75051 | -2.79996 | 35952 ft | 480 kts | 44° |
| 2026-05-07 11:28 | 37.79665 | -2.73891 | 35951 ft | 481 kts | 44° |
| 2026-05-07 11:29 | 37.84279 | -2.67760 | 35942 ft | 481 kts | 44° |
| 2026-05-07 11:29 | 37.88860 | -2.61661 | 35934 ft | 471 kts | 45° |
| 2026-05-07 11:30 | 37.91083 | -2.58697 | 35929 ft | 457 kts | 45° |
| 2026-05-07 11:30 | 37.93210 | -2.55859 | 35948 ft | 444 kts | 45° |
| 2026-05-07 11:30 | 37.97439 | -2.50217 | 35958 ft | 441 kts | 45° |
| 2026-05-07 11:31 | 38.01667 | -2.44573 | 35962 ft | 442 kts | 45° |
| 2026-05-07 11:31 | 38.05893 | -2.38922 | 35968 ft | 442 kts | 45° |
| 2026-05-07 11:32 | 38.12242 | -2.30411 | 35967 ft | 443 kts | 45° |
| 2026-05-07 11:33 | 38.16475 | -2.24725 | 35961 ft | 442 kts | 46° |
| 2026-05-07 11:33 | 38.21121 | -2.19642 | 35971 ft | 441 kts | 27° |
| 2026-05-07 11:34 | 38.26786 | -2.16896 | 35973 ft | 434 kts | 9° |
| 2026-05-07 11:34 | 38.32682 | -2.15196 | 35963 ft | 435 kts | 9° |
| 2026-05-07 11:35 | 38.38598 | -2.13451 | 35975 ft | 437 kts | 9° |
| 2026-05-07 11:35 | 38.44518 | -2.11636 | 35966 ft | 438 kts | 10° |
| 2026-05-07 11:36 | 38.50337 | -2.09477 | 35945 ft | 443 kts | 25° |
| 2026-05-07 11:36 | 38.52944 | -2.07390 | 35976 ft | 444 kts | 38° |
| 2026-05-07 11:36 | 38.55152 | -2.04629 | 35958 ft | 445 kts | 52° |
| 2026-05-07 11:37 | 38.58914 | -1.98369 | 35969 ft | 444 kts | 53° |
| 2026-05-07 11:37 | 38.62660 | -1.92082 | 35967 ft | 445 kts | 53° |
| 2026-05-07 11:38 | 38.66456 | -1.85834 | 35966 ft | 444 kts | 53° |
| 2026-05-07 11:38 | 38.70260 | -1.79600 | 35972 ft | 444 kts | 53° |
| 2026-05-07 11:39 | 38.74056 | -1.73355 | 35965 ft | 444 kts | 53° |
| 2026-05-07 11:39 | 38.77847 | -1.67103 | 35970 ft | 444 kts | 53° |
| 2026-05-07 11:40 | 38.81632 | -1.60847 | 35963 ft | 444 kts | 53° |
| 2026-05-07 11:40 | 38.85417 | -1.54578 | 35970 ft | 444 kts | 54° |
| 2026-05-07 11:41 | 38.89198 | -1.48304 | 35979 ft | 444 kts | 54° |
| 2026-05-07 11:41 | 38.92981 | -1.42016 | 35980 ft | 445 kts | 54° |
| 2026-05-07 11:42 | 38.96709 | -1.35656 | 35963 ft | 444 kts | 64° |
| 2026-05-07 11:42 | 38.97792 | -1.32021 | 35986 ft | 430 kts | 86° |
| 2026-05-07 11:42 | 38.97957 | -1.28260 | 35967 ft | 417 kts | 104° |
| 2026-05-07 11:42 | 38.97326 | -1.24700 | 35981 ft | 402 kts | 120° |
| 2026-05-07 11:43 | 38.96086 | -1.21544 | 35978 ft | 391 kts | 132° |
| 2026-05-07 11:43 | 38.94391 | -1.18890 | 35967 ft | 378 kts | 146° |
| 2026-05-07 11:43 | 38.92358 | -1.16815 | 35982 ft | 372 kts | 152° |
| 2026-05-07 11:44 | 38.88114 | -1.12976 | 35929 ft | 374 kts | 153° |
| 2026-05-07 11:44 | 38.83858 | -1.09119 | 35952 ft | 376 kts | 152° |
| 2026-05-07 11:45 | 38.79690 | -1.05276 | 35892 ft | 373 kts | 152° |
| 2026-05-07 11:45 | 38.77600 | -1.03343 | 35514 ft | 370 kts | 152° |
| 2026-05-07 11:45 | 38.75457 | -1.01374 | 34695 ft | 380 kts | 154° |
| 2026-05-07 11:45 | 38.73165 | -0.99868 | 34036 ft | 371 kts | 170° |
| 2026-05-07 11:46 | 38.70661 | -0.99205 | 33776 ft | 356 kts | 178° |
| 2026-05-07 11:46 | 38.68240 | -0.98812 | 33640 ft | 346 kts | 178° |
| 2026-05-07 11:46 | 38.65871 | -0.98435 | 33252 ft | 340 kts | 178° |
| 2026-05-07 11:46 | 38.63531 | -0.98057 | 32571 ft | 338 kts | 178° |
| 2026-05-07 11:47 | 38.61212 | -0.97675 | 31924 ft | 337 kts | 178° |
| 2026-05-07 11:47 | 38.58902 | -0.97286 | 31383 ft | 332 kts | 177° |
| 2026-05-07 11:47 | 38.56629 | -0.96898 | 30879 ft | 328 kts | 177° |
| 2026-05-07 11:47 | 38.54412 | -0.96518 | 30374 ft | 324 kts | 177° |
| 2026-05-07 11:48 | 38.52163 | -0.96132 | 29803 ft | 320 kts | 177° |
| 2026-05-07 11:48 | 38.49963 | -0.95755 | 29153 ft | 318 kts | 176° |
| 2026-05-07 11:48 | 38.47810 | -0.95385 | 28563 ft | 314 kts | 177° |
| 2026-05-07 11:48 | 38.45694 | -0.95020 | 28435 ft | 299 kts | 177° |
| 2026-05-07 11:49 | 38.43682 | -0.94671 | 28191 ft | 288 kts | 177° |
| 2026-05-07 11:49 | 38.41716 | -0.94406 | 27771 ft | 279 kts | 186° |
| 2026-05-07 11:49 | 38.39848 | -0.94828 | 27282 ft | 271 kts | 199° |
| 2026-05-07 11:49 | 38.38117 | -0.95767 | 26752 ft | 270 kts | 209° |
| 2026-05-07 11:50 | 38.36555 | -0.97107 | 26214 ft | 272 kts | 218° |
| 2026-05-07 11:50 | 38.35236 | -0.98835 | 25726 ft | 274 kts | 230° |
| 2026-05-07 11:50 | 38.34268 | -1.00929 | 25267 ft | 277 kts | 243° |
| 2026-05-07 11:50 | 38.33746 | -1.03311 | 24819 ft | 283 kts | 257° |
| 2026-05-07 11:51 | 38.33730 | -1.05836 | 24376 ft | 290 kts | 271° |
| 2026-05-07 11:51 | 38.34250 | -1.08358 | 23999 ft | 301 kts | 285° |
| 2026-05-07 11:51 | 38.35309 | -1.10692 | 23757 ft | 309 kts | 301° |
| 2026-05-07 11:51 | 38.36852 | -1.12627 | 23527 ft | 316 kts | 315° |
| 2026-05-07 11:52 | 38.38741 | -1.14101 | 23227 ft | 323 kts | 331° |
| 2026-05-07 11:52 | 38.40939 | -1.14848 | 22902 ft | 331 kts | 346° |
| 2026-05-07 11:52 | 38.43220 | -1.15265 | 22563 ft | 331 kts | 347° |
| 2026-05-07 11:52 | 38.45497 | -1.15649 | 22256 ft | 329 kts | 348° |
| 2026-05-07 11:53 | 38.47755 | -1.16037 | 21964 ft | 326 kts | 348° |
| 2026-05-07 11:53 | 38.50025 | -1.16089 | 21659 ft | 330 kts | 8° |
| 2026-05-07 11:53 | 38.52204 | -1.15195 | 21388 ft | 330 kts | 26° |
| 2026-05-07 11:53 | 38.54116 | -1.13607 | 21140 ft | 327 kts | 42° |
| 2026-05-07 11:54 | 38.55619 | -1.11471 | 20910 ft | 322 kts | 59° |
| 2026-05-07 11:54 | 38.56585 | -1.08936 | 20645 ft | 315 kts | 77° |
| 2026-05-07 11:54 | 38.56931 | -1.06216 | 20371 ft | 308 kts | 94° |
| 2026-05-07 11:54 | 38.56671 | -1.03551 | 20127 ft | 299 kts | 111° |
| 2026-05-07 11:55 | 38.55882 | -1.01138 | 19891 ft | 291 kts | 126° |
| 2026-05-07 11:55 | 38.54683 | -0.99146 | 19633 ft | 284 kts | 140° |
| 2026-05-07 11:55 | 38.53182 | -0.97545 | 19339 ft | 280 kts | 149° |
| 2026-05-07 11:55 | 38.51479 | -0.96326 | 19034 ft | 275 kts | 162° |
| 2026-05-07 11:56 | 38.49659 | -0.95754 | 18741 ft | 272 kts | 174° |
| 2026-05-07 11:56 | 38.47791 | -0.95406 | 18470 ft | 271 kts | 174° |
| 2026-05-07 11:56 | 38.45923 | -0.95075 | 18171 ft | 271 kts | 174° |
| 2026-05-07 11:56 | 38.44054 | -0.94747 | 17867 ft | 271 kts | 174° |
| 2026-05-07 11:57 | 38.42192 | -0.94431 | 17588 ft | 268 kts | 177° |
| 2026-05-07 11:57 | 38.40370 | -0.94733 | 17238 ft | 266 kts | 202° |
| 2026-05-07 11:57 | 38.38816 | -0.95976 | 16926 ft | 265 kts | 223° |
| 2026-05-07 11:57 | 38.37730 | -0.97857 | 16622 ft | 266 kts | 244° |
| 2026-05-07 11:58 | 38.37272 | -1.00135 | 16309 ft | 269 kts | 266° |
| 2026-05-07 11:58 | 38.37557 | -1.02501 | 15995 ft | 274 kts | 289° |
| 2026-05-07 11:58 | 38.38593 | -1.04551 | 15720 ft | 279 kts | 314° |
| 2026-05-07 11:58 | 38.40201 | -1.05931 | 15439 ft | 282 kts | 336° |
| 2026-05-07 11:59 | 38.42106 | -1.06531 | 15147 ft | 283 kts | 351° |
| 2026-05-07 11:59 | 38.44051 | -1.06855 | 14898 ft | 281 kts | 352° |
| 2026-05-07 11:59 | 38.45987 | -1.07168 | 14659 ft | 280 kts | 352° |
| 2026-05-07 11:59 | 38.47917 | -1.07496 | 14416 ft | 280 kts | 352° |
| 2026-05-07 12:00 | 38.49845 | -1.07835 | 14175 ft | 280 kts | 352° |
| 2026-05-07 12:00 | 38.51771 | -1.08178 | 13944 ft | 279 kts | 352° |
| 2026-05-07 12:00 | 38.53696 | -1.08290 | 13677 ft | 278 kts | 12° |
| 2026-05-07 12:00 | 38.55455 | -1.07372 | 13437 ft | 273 kts | 38° |
| 2026-05-07 12:01 | 38.56763 | -1.05655 | 13175 ft | 269 kts | 60° |
| 2026-05-07 12:01 | 38.57449 | -1.03466 | 12921 ft | 265 kts | 83° |
| 2026-05-07 12:01 | 38.57420 | -1.01149 | 12662 ft | 260 kts | 107° |
| 2026-05-07 12:01 | 38.56697 | -0.99071 | 12398 ft | 256 kts | 128° |
| 2026-05-07 12:02 | 38.55442 | -0.97499 | 12138 ft | 252 kts | 146° |
| 2026-05-07 12:02 | 38.53881 | -0.96547 | 11869 ft | 249 kts | 167° |
| 2026-05-07 12:02 | 38.52178 | -0.96192 | 11640 ft | 248 kts | 171° |
| 2026-05-07 12:02 | 38.50470 | -0.95888 | 11386 ft | 247 kts | 171° |
| 2026-05-07 12:03 | 38.48768 | -0.95587 | 11131 ft | 247 kts | 171° |
| 2026-05-07 12:03 | 38.47068 | -0.95287 | 10881 ft | 246 kts | 171° |
| 2026-05-07 12:03 | 38.45948 | -0.95089 | 10712 ft | 245 kts | 171° |
| 2026-05-07 12:03 | 38.44258 | -0.94789 | 10471 ft | 244 kts | 171° |
| 2026-05-07 12:04 | 38.42582 | -0.94492 | 10227 ft | 243 kts | 171° |
| 2026-05-07 12:04 | 38.40902 | -0.94617 | 9956 ft | 246 kts | 197° |
| 2026-05-07 12:04 | 38.39457 | -0.95755 | 9712 ft | 248 kts | 224° |
| 2026-05-07 12:04 | 38.38542 | -0.97608 | 9444 ft | 250 kts | 250° |
| 2026-05-07 12:05 | 38.38369 | -0.99805 | 9179 ft | 252 kts | 278° |
| 2026-05-07 12:05 | 38.39020 | -1.01862 | 8929 ft | 252 kts | 308° |
| 2026-05-07 12:05 | 38.40349 | -1.03289 | 8688 ft | 251 kts | 335° |
| 2026-05-07 12:05 | 38.42004 | -1.03926 | 8481 ft | 247 kts | 353° |
| 2026-05-07 12:06 | 38.43694 | -1.04231 | 8369 ft | 245 kts | 355° |
| 2026-05-07 12:06 | 38.45384 | -1.04506 | 8313 ft | 247 kts | 354° |
| 2026-05-07 12:06 | 38.47098 | -1.04794 | 8277 ft | 250 kts | 354° |
| 2026-05-07 12:06 | 38.48822 | -1.04978 | 8242 ft | 248 kts | 8° |
| 2026-05-07 12:07 | 38.50399 | -1.04227 | 8263 ft | 242 kts | 39° |
| 2026-05-07 12:07 | 38.51521 | -1.02674 | 8268 ft | 239 kts | 63° |
| 2026-05-07 12:07 | 38.52016 | -1.00667 | 8249 ft | 239 kts | 88° |
| 2026-05-07 12:07 | 38.51746 | -0.98581 | 8254 ft | 244 kts | 116° |
| 2026-05-07 12:08 | 38.50695 | -0.96924 | 8040 ft | 252 kts | 145° |
| 2026-05-07 12:08 | 38.49060 | -0.96134 | 7784 ft | 256 kts | 171° |
| 2026-05-07 12:08 | 38.47249 | -0.96089 | 7360 ft | 264 kts | 181° |
| 2026-05-07 12:08 | 38.45410 | -0.96219 | 7061 ft | 264 kts | 181° |
| 2026-05-07 12:09 | 38.43586 | -0.96342 | 6834 ft | 261 kts | 181° |
| 2026-05-07 12:09 | 38.41798 | -0.96441 | 6613 ft | 257 kts | 180° |
| 2026-05-07 12:09 | 38.39997 | -0.96528 | 6230 ft | 261 kts | 180° |
| 2026-05-07 12:09 | 38.38184 | -0.96611 | 6001 ft | 258 kts | 180° |
| 2026-05-07 12:10 | 38.36420 | -0.96688 | 5890 ft | 250 kts | 178° |
| 2026-05-07 12:10 | 38.34773 | -0.96310 | 5748 ft | 237 kts | 147° |
| 2026-05-07 12:10 | 38.33702 | -0.94839 | 5566 ft | 226 kts | 109° |
| 2026-05-07 12:10 | 38.33429 | -0.92925 | 5555 ft | 216 kts | 97° |
| 2026-05-07 12:11 | 38.33180 | -0.90987 | 5322 ft | 226 kts | 100° |
| 2026-05-07 12:11 | 38.32894 | -0.89018 | 5028 ft | 225 kts | 100° |
| 2026-05-07 12:11 | 38.32613 | -0.87072 | 4738 ft | 221 kts | 100° |
| 2026-05-07 12:11 | 38.32342 | -0.85168 | 4429 ft | 216 kts | 100° |
| 2026-05-07 12:12 | 38.32080 | -0.83314 | 4147 ft | 210 kts | 100° |
| 2026-05-07 12:12 | 38.31823 | -0.81505 | 3885 ft | 205 kts | 100° |
| 2026-05-07 12:12 | 38.31572 | -0.79737 | 3609 ft | 200 kts | 100° |
| 2026-05-07 12:12 | 38.31329 | -0.78015 | 3356 ft | 195 kts | 100° |
| 2026-05-07 12:13 | 38.31093 | -0.76336 | 3082 ft | 191 kts | 101° |
| 2026-05-07 12:13 | 38.30860 | -0.74693 | 2840 ft | 188 kts | 98° |
| 2026-05-07 12:13 | 38.30632 | -0.73067 | 2572 ft | 186 kts | 98° |
| 2026-05-07 12:13 | 38.30406 | -0.71463 | 2336 ft | 183 kts | 98° |
| 2026-05-07 12:14 | 38.30187 | -0.69908 | 2101 ft | 177 kts | 98° |
| 2026-05-07 12:14 | 38.29973 | -0.68381 | 1862 ft | 174 kts | 98° |
| 2026-05-07 12:14 | 38.29765 | -0.66896 | 1632 ft | 165 kts | 98° |
| 2026-05-07 12:14 | 38.29570 | -0.65504 | 1429 ft | 154 kts | 99° |
| 2026-05-07 12:15 | 38.29391 | -0.64208 | 1268 ft | 144 kts | 98° |
| 2026-05-07 12:15 | 38.29307 | -0.63566 | 1155 ft | 141 kts | 98° |
| 2026-05-07 12:18 | 38.29165 | -0.62525 | 960 ft | 142 kts | 99° |
| 2026-05-07 12:18 | 38.28986 | -0.61281 | 824 ft | 142 kts | 98° |
| 2026-05-07 12:18 | 38.28812 | -0.60036 | 620 ft | 144 kts | 99° |
| 2026-05-07 12:18 | 38.28639 | -0.58798 | 407 ft | 141 kts | 99° |
| 2026-05-07 12:19 | 38.28462 | -0.57567 | 214 ft | 148 kts | 99° |
| 2026-05-07 12:19 | 38.28289 | -0.56313 | 111 ft | 132 kts | 101° |
| 2026-05-07 12:19 | 38.28151 | -0.55353 | 86 ft | 84 kts | 100° |
| 2026-05-07 12:19 | 38.28148 | -0.54878 | 67 ft | 39 kts | 70° |
| 2026-05-07 12:20 | 38.28224 | -0.54707 | 62 ft | 6 kts | 4° |
| 2026-05-07 12:20 | 38.28233 | -0.54718 | 63 ft | 2 kts | 310° |
| 2026-05-07 12:20 | 38.28247 | -0.54758 | 62 ft | 9 kts | 285° |
| 2026-05-07 12:20 | 38.28263 | -0.54872 | 67 ft | 15 kts | 280° |
| 2026-05-07 12:21 | 38.28281 | -0.55001 | 70 ft | 14 kts | 280° |
| 2026-05-07 12:21 | 38.28299 | -0.55125 | 69 ft | 14 kts | 280° |
| 2026-05-07 12:21 | 38.28351 | -0.55204 | 83 ft | 13 kts | 12° |
| 2026-05-07 12:21 | 38.28427 | -0.55167 | 85 ft | 13 kts | 326° |
| 2026-05-07 12:22 | 38.28451 | -0.55273 | 86 ft | 13 kts | 278° |
| 2026-05-07 12:22 | 38.28465 | -0.55382 | 92 ft | 12 kts | 286° |
| 2026-05-07 12:22 | 38.28538 | -0.55406 | 93 ft | 12 kts | 9° |
| 2026-05-07 12:22 | 38.28560 | -0.55401 | 93 ft | 0 kts | 10° |